Time;durP1;ratioP1;P1;durP2;ratioP2;P2;SDS_P1;SDS_P2;PMS_P1;PMS_P2;Temp;Humidity;BMP_temperature;BMP_pressure;BME280_temperature;BME280_humidity;BME280_pressure;Samples;Min_cycle;Max_cycle;Signal;HPM_P1;HPM_P2
2023/12/23 00:01:17;;;;;;;0.10;0.10;;;;;;;;;;6338087;22;20027;-79
2023/12/23 00:03:44;;;;;;;0.10;0.10;;;;;;;;;;6338061;22;20099;-81
2023/12/23 00:06:10;;;;;;;0.10;0.10;;;;;;;;;;6338160;22;20333;-79
2023/12/23 00:08:37;;;;;;;0.10;0.10;;;;;;;;;;6338260;22;20050;-79
2023/12/23 00:11:03;;;;;;;0.10;0.10;;;;;;;;;;6337486;22;20023;-81
2023/12/23 00:13:30;;;;;;;0.10;0.10;;;;;;;;;;6337987;22;20054;-80
2023/12/23 00:15:56;;;;;;;0.00;0.00;;;;;;;;;;6337902;22;20027;-81
2023/12/23 00:18:23;;;;;;;0.10;0.10;;;;;;;;;;6337951;22;20482;-80
2023/12/23 00:20:49;;;;;;;0.10;0.10;;;;;;;;;;6338512;22;20081;-81
2023/12/23 00:23:16;;;;;;;0.10;0.10;;;;;;;;;;6337495;22;20028;-80
2023/12/23 00:25:43;;;;;;;0.10;0.10;;;;;;;;;;6337715;22;20085;-80
2023/12/23 00:28:09;;;;;;;0.10;0.10;;;;;;;;;;6309903;22;20051;-79
2023/12/23 00:30:35;;;;;;;0.10;0.10;;;;;;;;;;6337310;22;20490;-79
2023/12/23 00:33:05;;;;;;;0.10;0.10;;;;;;;;;;6337992;22;20070;-79
2023/12/23 00:35:31;;;;;;;0.10;0.10;;;;;;;;;;6310173;22;20033;-79
2023/12/23 00:37:58;;;;;;;0.10;0.10;;;;;;;;;;6338866;22;20033;-79
2023/12/23 00:40:24;;;;;;;0.10;0.10;;;;;;;;;;6338034;22;20093;-79
2023/12/23 00:42:50;;;;;;;0.00;0.00;;;;;;;;;;6338580;22;20035;-79
2023/12/23 00:45:17;;;;;;;0.10;0.10;;;;;;;;;;6337295;22;20602;-79
2023/12/23 00:47:43;;;;;;;0.10;0.10;;;;;;;;;;6313473;22;20026;-78
2023/12/23 00:50:10;;;;;;;0.03;0.03;;;;;;;;;;6271442;22;20021;-80
2023/12/23 00:52:36;;;;;;;0.10;0.10;;;;;;;;;;6236222;22;20032;-79
2023/12/23 00:55:03;;;;;;;0.10;0.10;;;;;;;;;;6278838;22;20025;-80
2023/12/23 00:57:29;;;;;;;0.10;0.10;;;;;;;;;;6278918;22;20441;-80
2023/12/23 00:59:56;;;;;;;0.10;0.10;;;;;;;;;;6278923;22;20108;-79
2023/12/23 01:02:22;;;;;;;0.10;0.10;;;;;;;;;;6279158;22;20035;-80
2023/12/23 01:04:49;;;;;;;0.30;0.30;;;;;;;;;;6278532;22;20090;-79
2023/12/23 01:07:15;;;;;;;0.10;0.10;;;;;;;;;;6277741;22;20107;-80
2023/12/23 01:09:42;;;;;;;0.10;0.10;;;;;;;;;;6250915;22;20108;-80
2023/12/23 01:12:08;;;;;;;0.10;0.10;;;;;;;;;;6251035;22;20035;-80
2023/12/23 01:14:34;;;;;;;0.10;0.10;;;;;;;;;;6278231;22;20020;-79
2023/12/23 01:17:03;;;;;;;0.10;0.10;;;;;;;;;;6277707;22;20115;-81
2023/12/23 01:19:29;;;;;;;0.10;0.10;;;;;;;;;;6251553;22;20059;-79
2023/12/23 01:21:57;;;;;;;0.10;0.10;;;;;;;;;;6252295;22;20016;-81
2023/12/23 01:24:23;;;;;;;0.10;0.10;;;;;;;;;;6253263;22;20032;-81
2023/12/23 01:26:50;;;;;;;0.10;0.10;;;;;;;;;;6252157;22;20035;-81
2023/12/23 01:29:16;;;;;;;0.10;0.10;;;;;;;;;;6252506;22;20637;-81
2023/12/23 01:31:43;;;;;;;0.10;0.10;;;;;;;;;;6252104;22;20111;-82
2023/12/23 01:34:09;;;;;;;0.10;0.10;;;;;;;;;;6251966;22;20024;-81
2023/12/23 01:36:36;;;;;;;0.10;0.10;;;;;;;;;;6278146;22;20098;-81
2023/12/23 01:39:04;;;;;;;0.10;0.10;;;;;;;;;;6279095;22;20040;-81
2023/12/23 01:41:30;;;;;;;0.10;0.10;;;;;;;;;;6279912;22;20520;-81
2023/12/23 01:43:57;;;;;;;0.10;0.10;;;;;;;;;;6252347;22;20051;-81
2023/12/23 01:46:23;;;;;;;0.10;0.10;;;;;;;;;;6252851;22;20028;-82
2023/12/23 01:48:50;;;;;;;0.10;0.10;;;;;;;;;;6252018;22;20024;-82
2023/12/23 01:51:17;;;;;;;0.10;0.10;;;;;;;;;;6251870;22;20063;-80
2023/12/23 01:53:45;;;;;;;0.10;0.10;;;;;;;;;;6252456;22;20166;-80
2023/12/23 01:56:11;;;;;;;0.10;0.10;;;;;;;;;;6252624;22;20047;-82
2023/12/23 01:58:38;;;;;;;0.10;0.10;;;;;;;;;;6252298;22;20472;-82
2023/12/23 02:01:04;;;;;;;0.10;0.10;;;;;;;;;;6252594;22;20032;-82
2023/12/23 02:03:32;;;;;;;0.30;0.30;;;;;;;;;;6279087;22;20056;-81
2023/12/23 02:05:59;;;;;;;0.10;0.10;;;;;;;;;;6251107;22;20107;-82
2023/12/23 02:08:25;;;;;;;0.10;0.10;;;;;;;;;;6252934;22;20107;-81
2023/12/23 02:10:56;;;;;;;0.10;0.10;;;;;;;;;;6278870;22;20070;-81
2023/12/23 02:13:27;;;;;;;0.10;0.10;;;;;;;;;;6252001;22;20078;-81
2023/12/23 02:15:54;;;;;;;0.10;0.10;;;;;;;;;;6251805;22;20480;-80
2023/12/23 02:18:20;;;;;;;0.10;0.10;;;;;;;;;;6278366;22;20447;-81
2023/12/23 02:20:51;;;;;;;0.10;0.10;;;;;;;;;;6251965;22;20095;-81
2023/12/23 02:23:17;;;;;;;0.10;0.10;;;;;;;;;;6251206;22;20028;-81
2023/12/23 02:25:48;;;;;;;0.10;0.10;;;;;;;;;;6278145;22;20028;-82
2023/12/23 02:28:15;;;;;;;0.10;0.10;;;;;;;;;;6277761;22;20016;-80
2023/12/23 02:30:43;;;;;;;0.10;0.10;;;;;;;;;;6251450;22;20032;-82
2023/12/23 02:33:10;;;;;;;0.10;0.10;;;;;;;;;;6250967;22;20024;-81
2023/12/23 02:35:36;;;;;;;0.93;0.85;;;;;;;;;;6251140;22;20032;-82
2023/12/23 02:38:03;;;;;;;0.10;0.10;;;;;;;;;;6250592;22;20503;-81
2023/12/23 02:40:29;;;;;;;0.10;0.10;;;;;;;;;;6279248;22;20515;-81
2023/12/23 02:42:56;;;;;;;0.10;0.10;;;;;;;;;;6252283;22;20034;-82
2023/12/23 02:45:23;;;;;;;0.10;0.10;;;;;;;;;;6251201;22;20024;-82
2023/12/23 02:47:49;;;;;;;0.10;0.10;;;;;;;;;;6252520;22;20036;-82
2023/12/23 02:50:16;;;;;;;0.10;0.10;;;;;;;;;;6253078;22;21251;-80
2023/12/23 02:52:42;;;;;;;0.10;0.10;;;;;;;;;;6254099;22;20110;-82
2023/12/23 02:55:09;;;;;;;0.10;0.10;;;;;;;;;;6253143;22;21004;-83
2023/12/23 02:57:35;;;;;;;0.10;0.10;;;;;;;;;;6280265;22;20532;-83
2023/12/23 03:00:02;;;;;;;0.10;0.10;;;;;;;;;;6253423;22;20035;-82
2023/12/23 03:02:29;;;;;;;0.20;0.20;;;;;;;;;;6280429;22;20075;-82
2023/12/23 03:04:55;;;;;;;0.47;0.47;;;;;;;;;;6280353;22;20054;-81
2023/12/23 03:07:22;;;;;;;0.10;0.10;;;;;;;;;;6252816;22;20103;-82
2023/12/23 03:09:48;;;;;;;0.10;0.10;;;;;;;;;;6252852;22;20071;-82
2023/12/23 03:12:15;;;;;;;0.10;0.10;;;;;;;;;;6253452;22;20032;-83
2023/12/23 03:14:42;;;;;;;0.17;0.17;;;;;;;;;;6280222;22;20067;-82
2023/12/23 03:17:08;;;;;;;0.10;0.10;;;;;;;;;;6252151;22;20103;-82
2023/12/23 03:19:35;;;;;;;0.10;0.10;;;;;;;;;;6251971;22;20110;-82
2023/12/23 03:22:02;;;;;;;0.10;0.10;;;;;;;;;;6253376;22;20051;-81
2023/12/23 03:24:28;;;;;;;0.10;0.10;;;;;;;;;;6279486;22;20139;-81
2023/12/23 03:26:55;;;;;;;0.10;0.10;;;;;;;;;;6251551;22;20078;-82
2023/12/23 03:29:21;;;;;;;0.10;0.10;;;;;;;;;;6279401;22;20078;-82
2023/12/23 03:31:47;;;;;;;0.10;0.10;;;;;;;;;;6252488;22;20472;-81
2023/12/23 03:34:14;;;;;;;0.10;0.10;;;;;;;;;;6251348;22;20032;-81
2023/12/23 03:36:40;;;;;;;0.10;0.10;;;;;;;;;;6251469;22;20036;-81
2023/12/23 03:39:07;;;;;;;0.10;0.10;;;;;;;;;;6251710;22;20028;-81
2023/12/23 03:41:33;;;;;;;0.10;0.10;;;;;;;;;;6251777;22;20024;-81
2023/12/23 03:44:00;;;;;;;0.10;0.10;;;;;;;;;;6251062;22;20032;-81
2023/12/23 03:46:27;;;;;;;0.15;0.15;;;;;;;;;;6250948;22;20031;-82
2023/12/23 03:48:53;;;;;;;0.10;0.10;;;;;;;;;;6251751;22;20027;-81
2023/12/23 03:51:21;;;;;;;0.10;0.10;;;;;;;;;;6250713;22;20039;-81
2023/12/23 03:53:47;;;;;;;0.10;0.10;;;;;;;;;;6278038;22;20055;-81
2023/12/23 03:56:14;;;;;;;0.10;0.10;;;;;;;;;;6279944;22;20384;-82
2023/12/23 03:58:40;;;;;;;0.10;0.10;;;;;;;;;;6251352;22;20024;-81
2023/12/23 04:01:07;;;;;;;0.10;0.10;;;;;;;;;;6279288;22;20102;-82
2023/12/23 04:03:39;;;;;;;0.10;0.10;;;;;;;;;;6253025;22;20028;-82
2023/12/23 04:06:09;;;;;;;0.10;0.10;;;;;;;;;;6278740;22;20890;-80
2023/12/23 04:08:36;;;;;;;0.10;0.10;;;;;;;;;;6251932;22;20155;-82
2023/12/23 04:11:02;;;;;;;0.28;0.28;;;;;;;;;;6251533;22;20040;-81
2023/12/23 04:13:31;;;;;;;0.10;0.10;;;;;;;;;;6255105;22;20032;-81
2023/12/23 04:16:04;;;;;;;0.10;0.10;;;;;;;;;;6256609;22;20770;-81
2023/12/23 04:18:31;;;;;;;0.10;0.10;;;;;;;;;;6257883;22;20024;-81
2023/12/23 04:20:59;;;;;;;0.10;0.10;;;;;;;;;;6256814;22;20020;-81
2023/12/23 04:23:27;;;;;;;0.20;0.20;;;;;;;;;;6257455;22;20020;-81
2023/12/23 04:25:54;;;;;;;0.10;0.10;;;;;;;;;;6284703;22;20027;-81
2023/12/23 04:28:24;;;;;;;0.10;0.10;;;;;;;;;;6258090;22;20078;-81
2023/12/23 04:30:56;;;;;;;0.10;0.10;;;;;;;;;;6285077;22;20015;-81
2023/12/23 04:33:23;;;;;;;0.10;0.10;;;;;;;;;;6258766;22;20042;-81
2023/12/23 04:35:50;;;;;;;0.10;0.10;;;;;;;;;;6257497;22;20918;-81
2023/12/23 04:38:16;;;;;;;0.10;0.10;;;;;;;;;;6259312;22;20012;-81
2023/12/23 04:40:43;;;;;;;0.10;0.10;;;;;;;;;;6259444;22;20115;-81
2023/12/23 04:43:11;;;;;;;0.10;0.10;;;;;;;;;;6256963;22;20028;-81
2023/12/23 04:45:41;;;;;;;0.10;0.10;;;;;;;;;;6257326;22;20016;-81
2023/12/23 04:48:14;;;;;;;0.25;0.25;;;;;;;;;;6259839;22;20378;-82
2023/12/23 04:50:47;;;;;;;0.10;0.10;;;;;;;;;;6259458;22;20027;-81
2023/12/23 04:53:15;;;;;;;0.10;0.10;;;;;;;;;;6258071;22;20016;-81
2023/12/23 04:55:44;;;;;;;0.10;0.10;;;;;;;;;;6259672;22;20762;-81
2023/12/23 04:58:12;;;;;;;0.10;0.10;;;;;;;;;;6259436;22;20065;-81
2023/12/23 05:00:41;;;;;;;0.10;0.10;;;;;;;;;;6260022;22;20020;-81
2023/12/23 05:03:09;;;;;;;0.10;0.10;;;;;;;;;;6257494;22;20484;-81
2023/12/23 05:05:40;;;;;;;0.10;0.10;;;;;;;;;;6259048;22;20024;-81
2023/12/23 05:08:08;;;;;;;1.38;1.27;;;;;;;;;;6257462;22;20020;-81
2023/12/23 05:10:35;;;;;;;0.10;0.10;;;;;;;;;;6258890;22;20031;-81
2023/12/23 05:13:01;;;;;;;0.10;0.10;;;;;;;;;;6256666;22;20028;-81
2023/12/23 05:15:28;;;;;;;0.10;0.10;;;;;;;;;;6258075;22;20026;-81
2023/12/23 05:17:56;;;;;;;0.10;0.10;;;;;;;;;;6259719;22;20028;-80
2023/12/23 05:20:23;;;;;;;0.10;0.10;;;;;;;;;;6259963;22;20016;-81
2023/12/23 05:22:49;;;;;;;0.10;0.10;;;;;;;;;;6286476;22;20953;-81
2023/12/23 05:25:16;;;;;;;0.10;0.10;;;;;;;;;;6259469;22;20043;-82
2023/12/23 05:27:43;;;;;;;0.10;0.10;;;;;;;;;;6259015;22;20020;-81
2023/12/23 05:30:10;;;;;;;0.10;0.10;;;;;;;;;;6260363;22;20052;-81
2023/12/23 05:32:39;;;;;;;0.10;0.10;;;;;;;;;;6260170;22;20020;-81
2023/12/23 05:35:09;;;;;;;0.10;0.10;;;;;;;;;;6255930;22;20031;-82
2023/12/23 05:37:37;;;;;;;0.10;0.10;;;;;;;;;;6259079;22;20107;-82
2023/12/23 05:40:05;;;;;;;0.10;0.10;;;;;;;;;;6259020;22;20491;-82
2023/12/23 05:42:32;;;;;;;0.10;0.10;;;;;;;;;;6259326;22;20023;-82
2023/12/23 05:45:02;;;;;;;0.10;0.10;;;;;;;;;;6259053;22;20016;-82
2023/12/23 05:47:39;;;;;;;0.10;0.10;;;;;;;;;;6263434;22;20042;-82
2023/12/23 05:50:10;;;;;;;0.10;0.10;;;;;;;;;;6261028;22;20419;-82
2023/12/23 05:52:36;;;;;;;0.10;0.10;;;;;;;;;;6262385;22;20074;-80
2023/12/23 05:55:03;;;;;;;0.10;0.10;;;;;;;;;;6261080;22;20103;-80
2023/12/23 05:57:30;;;;;;;0.10;0.10;;;;;;;;;;6284267;22;20035;-80
2023/12/23 05:59:56;;;;;;;0.10;0.10;;;;;;;;;;6285094;22;20481;-81
2023/12/23 06:02:23;;;;;;;0.57;0.57;;;;;;;;;;6259929;22;20047;-81
2023/12/23 06:04:49;;;;;;;0.10;0.10;;;;;;;;;;6284617;22;20769;-81
2023/12/23 06:07:16;;;;;;;0.10;0.10;;;;;;;;;;6260372;22;20020;-80
2023/12/23 06:09:43;;;;;;;0.10;0.10;;;;;;;;;;6259226;22;20023;-81
2023/12/23 06:12:10;;;;;;;0.10;0.10;;;;;;;;;;6258496;22;20028;-80
2023/12/23 06:14:37;;;;;;;0.10;0.10;;;;;;;;;;6286574;22;20020;-80
2023/12/23 06:17:05;;;;;;;0.10;0.10;;;;;;;;;;6259520;22;20077;-81
2023/12/23 06:19:32;;;;;;;0.10;0.10;;;;;;;;;;6260068;22;20074;-80
2023/12/23 06:21:59;;;;;;;0.30;0.30;;;;;;;;;;6286979;22;20027;-81
2023/12/23 06:24:26;;;;;;;0.10;0.10;;;;;;;;;;6262344;22;20008;-81
2023/12/23 06:26:54;;;;;;;0.10;0.10;;;;;;;;;;6261054;22;20072;-80
2023/12/23 06:29:21;;;;;;;0.10;0.10;;;;;;;;;;6261295;22;20082;-80
2023/12/23 06:31:49;;;;;;;0.10;0.10;;;;;;;;;;6259513;22;20059;-80
2023/12/23 06:34:15;;;;;;;0.10;0.10;;;;;;;;;;6264920;22;20022;-80
2023/12/23 06:36:42;;;;;;;0.10;0.10;;;;;;;;;;6264067;22;20008;-81
2023/12/23 06:39:08;;;;;;;0.10;0.10;;;;;;;;;;6263921;22;20064;-81
2023/12/23 06:41:34;;;;;;;0.10;0.10;;;;;;;;;;6264224;22;20133;-81
2023/12/23 06:44:02;;;;;;;0.10;0.10;;;;;;;;;;6290929;22;20514;-82
2023/12/23 06:46:28;;;;;;;0.30;0.30;;;;;;;;;;6242916;22;20028;-80
2023/12/23 06:48:55;;;;;;;0.10;0.10;;;;;;;;;;6249504;22;20498;-79
2023/12/23 06:51:21;;;;;;;0.10;0.10;;;;;;;;;;6222150;22;20566;-80
2023/12/23 06:53:48;;;;;;;0.10;0.10;;;;;;;;;;6248432;22;20016;-80
2023/12/23 06:56:15;;;;;;;0.10;0.10;;;;;;;;;;6222137;22;20028;-79
2023/12/23 06:58:42;;;;;;;0.20;0.20;;;;;;;;;;6248264;22;20029;-78
2023/12/23 07:01:08;;;;;;;0.10;0.10;;;;;;;;;;6248043;22;20421;-80
2023/12/23 07:03:35;;;;;;;0.10;0.10;;;;;;;;;;6247807;22;20029;-79
2023/12/23 07:06:03;;;;;;;0.10;0.10;;;;;;;;;;6247434;22;20447;-80
2023/12/23 07:08:29;;;;;;;0.10;0.10;;;;;;;;;;6247656;22;20016;-79
2023/12/23 07:10:56;;;;;;;0.10;0.10;;;;;;;;;;6247757;22;20620;-79
2023/12/23 07:13:22;;;;;;;0.10;0.10;;;;;;;;;;6248706;22;20036;-78
2023/12/23 07:15:49;;;;;;;0.10;0.10;;;;;;;;;;6249909;22;20060;-78
2023/12/23 07:18:15;;;;;;;0.10;0.10;;;;;;;;;;6247157;22;20455;-79
2023/12/23 07:20:42;;;;;;;0.10;0.10;;;;;;;;;;6222669;22;20938;-79
2023/12/23 07:23:09;;;;;;;0.10;0.10;;;;;;;;;;6248399;22;20028;-78
2023/12/23 07:25:35;;;;;;;0.10;0.10;;;;;;;;;;6222709;22;20025;-79
2023/12/23 07:28:02;;;;;;;0.10;0.10;;;;;;;;;;6247581;22;20031;-77
2023/12/23 07:30:28;;;;;;;0.10;0.10;;;;;;;;;;6247816;22;20095;-79
2023/12/23 07:32:55;;;;;;;1.65;1.27;;;;;;;;;;6249084;22;20029;-79
2023/12/23 07:35:22;;;;;;;0.10;0.10;;;;;;;;;;6221021;22;20104;-80
2023/12/23 07:37:49;;;;;;;0.20;0.20;;;;;;;;;;6248633;22;20063;-79
2023/12/23 07:40:15;;;;;;;0.10;0.10;;;;;;;;;;6250018;22;20028;-79
2023/12/23 07:42:42;;;;;;;0.10;0.10;;;;;;;;;;6249906;22;20029;-77
2023/12/23 07:45:09;;;;;;;0.10;0.10;;;;;;;;;;6249331;22;20025;-79
2023/12/23 07:47:35;;;;;;;0.10;0.10;;;;;;;;;;6248954;22;20024;-79
2023/12/23 07:50:03;;;;;;;0.20;0.20;;;;;;;;;;6249384;22;20029;-79
2023/12/23 07:52:30;;;;;;;0.10;0.10;;;;;;;;;;6248445;22;20083;-80
2023/12/23 07:54:56;;;;;;;0.20;0.20;;;;;;;;;;6246910;22;20025;-78
2023/12/23 07:57:23;;;;;;;0.10;0.10;;;;;;;;;;6248164;22;20052;-78
2023/12/23 07:59:49;;;;;;;0.10;0.10;;;;;;;;;;6248170;22;20024;-79
2023/12/23 08:02:16;;;;;;;0.10;0.10;;;;;;;;;;6248139;22;20029;-79
2023/12/23 08:04:42;;;;;;;0.10;0.10;;;;;;;;;;6246942;22;20077;-80
2023/12/23 08:07:09;;;;;;;0.40;0.40;;;;;;;;;;6247023;22;20028;-79
2023/12/23 08:09:35;;;;;;;0.10;0.10;;;;;;;;;;6247199;22;20103;-78
2023/12/23 08:12:02;;;;;;;0.10;0.10;;;;;;;;;;6247924;22;20111;-78
2023/12/23 08:14:28;;;;;;;6.47;0.70;;;;;;;;;;6247101;22;20111;-79
2023/12/23 08:16:55;;;;;;;0.10;0.10;;;;;;;;;;6247389;22;20024;-77
2023/12/23 08:19:21;;;;;;;0.10;0.10;;;;;;;;;;6246954;22;20016;-79
2023/12/23 08:21:48;;;;;;;0.10;0.10;;;;;;;;;;6247537;22;21055;-79
2023/12/23 08:24:14;;;;;;;0.10;0.10;;;;;;;;;;6245392;22;20480;-79
2023/12/23 08:26:40;;;;;;;0.10;0.10;;;;;;;;;;6219152;22;20047;-79
2023/12/23 08:29:07;;;;;;;0.10;0.10;;;;;;;;;;6247165;22;20032;-79
2023/12/23 08:31:33;;;;;;;0.10;0.10;;;;;;;;;;6247207;22;20457;-79
2023/12/23 08:34:00;;;;;;;0.10;0.10;;;;;;;;;;6245543;22;20024;-79
2023/12/23 08:36:27;;;;;;;0.10;0.10;;;;;;;;;;6245934;22;20033;-78
2023/12/23 08:38:54;;;;;;;0.43;0.43;;;;;;;;;;6220767;22;20432;-77
2023/12/23 08:41:21;;;;;;;0.10;0.10;;;;;;;;;;6245746;22;20723;-80
2023/12/23 08:43:47;;;;;;;0.10;0.10;;;;;;;;;;6247328;22;20025;-78
2023/12/23 08:46:15;;;;;;;0.10;0.10;;;;;;;;;;6246626;22;20109;-79
2023/12/23 08:48:41;;;;;;;0.10;0.10;;;;;;;;;;6245782;22;20495;-78
2023/12/23 08:51:08;;;;;;;0.10;0.10;;;;;;;;;;6219793;22;20036;-79
2023/12/23 08:53:35;;;;;;;17.73;1.55;;;;;;;;;;6247322;22;20029;-80
2023/12/23 08:56:01;;;;;;;0.10;0.10;;;;;;;;;;6245955;22;20017;-79
2023/12/23 08:58:30;;;;;;;0.10;0.10;;;;;;;;;;6246777;22;20928;-80
2023/12/23 09:00:59;;;;;;;0.10;0.10;;;;;;;;;;6246713;22;20040;-79
2023/12/23 09:03:27;;;;;;;0.10;0.10;;;;;;;;;;6245366;22;20021;-79
2023/12/23 09:05:54;;;;;;;0.10;0.10;;;;;;;;;;6246840;22;20067;-80
2023/12/23 09:08:20;;;;;;;0.10;0.10;;;;;;;;;;6220496;22;20572;-78
2023/12/23 09:10:47;;;;;;;0.10;0.10;;;;;;;;;;6220245;22;20024;-79
2023/12/23 09:13:13;;;;;;;0.10;0.10;;;;;;;;;;6245385;22;20028;-79
2023/12/23 09:15:40;;;;;;;0.10;0.10;;;;;;;;;;6246509;22;20055;-80
2023/12/23 09:18:06;;;;;;;0.10;0.10;;;;;;;;;;6247399;22;20071;-80
2023/12/23 09:20:32;;;;;;;0.10;0.10;;;;;;;;;;6231382;22;20029;-80
2023/12/23 09:22:59;;;;;;;0.10;0.10;;;;;;;;;;6247027;22;20025;-77
2023/12/23 09:25:26;;;;;;;0.17;0.17;;;;;;;;;;6246780;22;20032;-80
2023/12/23 09:27:52;;;;;;;0.10;0.10;;;;;;;;;;6246506;22;20384;-80
2023/12/23 09:30:19;;;;;;;0.10;0.10;;;;;;;;;;6244472;22;20030;-77
2023/12/23 09:32:45;;;;;;;0.10;0.10;;;;;;;;;;6247356;22;20059;-79
2023/12/23 09:35:12;;;;;;;0.10;0.10;;;;;;;;;;6245978;22;20576;-77
2023/12/23 09:37:38;;;;;;;0.10;0.10;;;;;;;;;;6247169;22;20447;-80
2023/12/23 09:40:05;;;;;;;0.10;0.10;;;;;;;;;;6244264;22;20024;-79
2023/12/23 09:42:31;;;;;;;0.25;0.25;;;;;;;;;;6246489;22;20024;-80
2023/12/23 09:44:58;;;;;;;0.10;0.10;;;;;;;;;;6246070;22;20044;-80
2023/12/23 09:47:25;;;;;;;0.57;0.57;;;;;;;;;;6245103;22;20108;-78
2023/12/23 09:49:51;;;;;;;0.10;0.10;;;;;;;;;;6246420;22;20420;-78
2023/12/23 09:52:18;;;;;;;0.10;0.10;;;;;;;;;;6244854;22;20552;-80
2023/12/23 09:54:47;;;;;;;0.10;0.10;;;;;;;;;;6218372;22;20032;-78
2023/12/23 09:57:14;;;;;;;0.10;0.10;;;;;;;;;;6247062;22;20024;-77
2023/12/23 09:59:41;;;;;;;0.20;0.20;;;;;;;;;;6247421;22;20031;-80
2023/12/23 10:02:07;;;;;;;0.10;0.10;;;;;;;;;;6245103;22;20033;-81
2023/12/23 10:04:34;;;;;;;0.10;0.10;;;;;;;;;;6243458;22;20031;-79
2023/12/23 10:07:01;;;;;;;0.10;0.10;;;;;;;;;;6216120;22;20028;-79
2023/12/23 10:09:29;;;;;;;0.10;0.10;;;;;;;;;;6242307;22;20060;-79
2023/12/23 10:11:55;;;;;;;0.10;0.10;;;;;;;;;;6241708;22;20032;-78
2023/12/23 10:14:24;;;;;;;0.10;0.10;;;;;;;;;;6242338;22;20029;-80
2023/12/23 10:16:50;;;;;;;0.10;0.10;;;;;;;;;;6241033;22;20051;-80
2023/12/23 10:19:17;;;;;;;0.10;0.10;;;;;;;;;;6241376;22;20063;-78
2023/12/23 10:21:43;;;;;;;0.10;0.10;;;;;;;;;;6240735;22;20040;-77
2023/12/23 10:24:10;;;;;;;0.10;0.10;;;;;;;;;;6240025;22;20524;-78
2023/12/23 10:26:37;;;;;;;0.10;0.10;;;;;;;;;;6243156;22;20056;-78
2023/12/23 10:29:04;;;;;;;1.10;0.80;;;;;;;;;;6242677;22;20025;-78
2023/12/23 10:31:32;;;;;;;0.10;0.10;;;;;;;;;;6243071;22;20546;-81
2023/12/23 10:34:10;;;;;;;0.10;0.10;;;;;;;;;;6240645;22;20043;-77
2023/12/23 10:36:37;;;;;;;0.10;0.10;;;;;;;;;;6241565;22;20032;-79
2023/12/23 10:39:09;;;;;;;0.10;0.10;;;;;;;;;;6240885;22;20469;-78
2023/12/23 10:41:35;;;;;;;0.10;0.10;;;;;;;;;;6240396;22;20028;-79
2023/12/23 10:44:03;;;;;;;0.10;0.10;;;;;;;;;;6241543;22;20086;-77
2023/12/23 10:46:30;;;;;;;0.10;0.10;;;;;;;;;;6241535;22;20028;-78
2023/12/23 10:48:57;;;;;;;0.10;0.10;;;;;;;;;;6242699;22;20025;-78
2023/12/23 10:51:24;;;;;;;0.10;0.10;;;;;;;;;;6241162;22;20103;-80
2023/12/23 10:53:51;;;;;;;0.40;0.40;;;;;;;;;;6242066;22;20079;-78
2023/12/23 10:56:18;;;;;;;0.10;0.10;;;;;;;;;;6240946;22;20017;-78
2023/12/23 10:58:44;;;;;;;0.88;0.52;;;;;;;;;;6241567;22;20056;-79
2023/12/23 11:01:12;;;;;;;0.10;0.10;;;;;;;;;;6214747;22;20114;-78
2023/12/23 11:03:39;;;;;;;0.20;0.20;;;;;;;;;;6241733;22;20033;-78
2023/12/23 11:06:06;;;;;;;0.10;0.10;;;;;;;;;;6242120;22;20095;-78
2023/12/23 11:08:32;;;;;;;0.10;0.10;;;;;;;;;;6240990;22;20028;-78
2023/12/23 11:10:59;;;;;;;0.28;0.28;;;;;;;;;;6241688;22;20035;-81
2023/12/23 11:13:26;;;;;;;0.10;0.10;;;;;;;;;;6242432;22;20039;-78
2023/12/23 11:15:53;;;;;;;0.10;0.10;;;;;;;;;;6242604;22;20024;-78
2023/12/23 11:18:21;;;;;;;0.10;0.10;;;;;;;;;;6242639;22;20103;-79
2023/12/23 11:20:49;;;;;;;0.10;0.10;;;;;;;;;;6242581;22;20511;-81
2023/12/23 11:23:30;;;;;;;0.10;0.10;;;;;;;;;;6240440;22;20476;-78
2023/12/23 11:25:56;;;;;;;0.10;0.10;;;;;;;;;;6242361;22;20028;-78
2023/12/23 11:28:26;;;;;;;0.10;0.10;;;;;;;;;;6242531;22;20083;-80
2023/12/23 11:30:54;;;;;;;0.10;0.10;;;;;;;;;;6242708;22;20392;-78
2023/12/23 11:33:22;;;;;;;0.10;0.10;;;;;;;;;;6241818;22;20508;-78
2023/12/23 11:35:49;;;;;;;0.10;0.10;;;;;;;;;;6241952;22;20024;-79
2023/12/23 11:38:16;;;;;;;0.95;0.38;;;;;;;;;;6242127;22;20028;-78
2023/12/23 11:40:43;;;;;;;0.10;0.10;;;;;;;;;;6242121;22;20029;-78
2023/12/23 11:43:09;;;;;;;0.10;0.10;;;;;;;;;;6242216;22;20036;-79
2023/12/23 11:45:39;;;;;;;0.10;0.10;;;;;;;;;;6242097;22;20111;-79
2023/12/23 11:48:06;;;;;;;0.20;0.20;;;;;;;;;;6242104;22;20599;-81
2023/12/23 11:50:33;;;;;;;0.22;0.22;;;;;;;;;;6240455;22;20031;-79
2023/12/23 11:52:59;;;;;;;0.10;0.10;;;;;;;;;;6242723;22;20060;-78
2023/12/23 11:55:26;;;;;;;0.10;0.10;;;;;;;;;;6241427;22;20060;-79
2023/12/23 11:57:52;;;;;;;0.10;0.10;;;;;;;;;;6241598;22;20103;-78
2023/12/23 12:00:19;;;;;;;0.10;0.10;;;;;;;;;;6242371;22;20025;-78
2023/12/23 12:02:45;;;;;;;0.10;0.10;;;;;;;;;;6240637;22;20131;-79
2023/12/23 12:05:12;;;;;;;0.10;0.10;;;;;;;;;;6241615;22;20024;-78
2023/12/23 12:07:39;;;;;;;0.10;0.10;;;;;;;;;;6241378;22;20036;-78
2023/12/23 12:10:05;;;;;;;0.10;0.10;;;;;;;;;;6214745;22;20527;-78
2023/12/23 12:12:32;;;;;;;0.10;0.10;;;;;;;;;;6241600;22;20028;-79
2023/12/23 12:14:58;;;;;;;0.10;0.10;;;;;;;;;;6242070;22;20032;-79
2023/12/23 12:17:25;;;;;;;0.10;0.10;;;;;;;;;;6242168;22;20028;-80
2023/12/23 12:19:51;;;;;;;0.10;0.10;;;;;;;;;;6240105;22;20028;-78
2023/12/23 12:22:18;;;;;;;0.10;0.10;;;;;;;;;;6241229;22;20051;-78
2023/12/23 12:24:45;;;;;;;0.10;0.10;;;;;;;;;;6241615;22;20025;-78
2023/12/23 12:27:12;;;;;;;0.10;0.10;;;;;;;;;;6242037;22;20060;-78
2023/12/23 12:29:38;;;;;;;0.10;0.10;;;;;;;;;;6241614;22;20449;-78
2023/12/23 12:32:09;;;;;;;0.10;0.10;;;;;;;;;;6241666;22;20499;-78
2023/12/23 12:34:36;;;;;;;0.20;0.20;;;;;;;;;;6240816;22;20028;-80
2023/12/23 12:37:02;;;;;;;0.10;0.10;;;;;;;;;;6242745;22;20036;-79
2023/12/23 12:39:29;;;;;;;0.10;0.10;;;;;;;;;;6241288;22;20036;-78
2023/12/23 12:41:56;;;;;;;0.10;0.10;;;;;;;;;;6241624;22;20060;-82
2023/12/23 12:44:23;;;;;;;0.10;0.10;;;;;;;;;;6241606;22;20480;-78
2023/12/23 12:46:54;;;;;;;0.10;0.10;;;;;;;;;;6235288;22;20032;-79
2023/12/23 12:49:23;;;;;;;;;;;;;;;;;;6233783;22;20051;-80
2023/12/23 12:51:52;;;;;;;0.10;0.10;;;;;;;;;;6266525;22;45788;-79
2023/12/23 12:54:24;;;;;;;0.10;0.10;;;;;;;;;;6232806;22;20265;-79
2023/12/23 12:56:51;;;;;;;0.10;0.10;;;;;;;;;;6225846;22;20028;-80
2023/12/23 12:59:17;;;;;;;0.10;0.10;;;;;;;;;;6232409;22;20023;-79
2023/12/23 13:01:44;;;;;;;0.10;0.10;;;;;;;;;;6226266;22;20021;-79
2023/12/23 13:04:19;;;;;;;5.15;0.63;;;;;;;;;;6217031;22;20025;-77
2023/12/23 13:07:06;;;;;;;0.10;0.10;;;;;;;;;;6220878;22;20028;-78
2023/12/23 13:09:57;;;;;;;0.10;0.10;;;;;;;;;;6219232;22;20115;-78
2023/12/23 13:20:07;;;;;;;0.10;0.10;;;;;;;;;;6277189;22;20059;-78
2023/12/23 13:29:30;;;;;;;0.10;0.10;;;;;;;;;;6269953;22;20016;-77
2023/12/23 13:31:56;;;;;;;0.10;0.10;;;;;;;;;;6246679;22;20072;-78
2023/12/23 13:34:23;;;;;;;0.10;0.10;;;;;;;;;;6279042;22;20030;-78
2023/12/23 13:36:50;;;;;;;0.10;0.10;;;;;;;;;;6252106;22;20024;-78
2023/12/23 13:39:16;;;;;;;0.10;0.10;;;;;;;;;;6248736;22;20028;-77
2023/12/23 13:41:46;;;;;;;0.10;0.10;;;;;;;;;;6276583;22;20023;-78
2023/12/23 13:44:13;;;;;;;0.10;0.10;;;;;;;;;;6275393;22;20024;-78
2023/12/23 13:46:43;;;;;;;0.10;0.10;;;;;;;;;;6249182;22;20063;-78
2023/12/23 13:49:09;;;;;;;0.10;0.10;;;;;;;;;;6273483;22;20031;-77
2023/12/23 13:51:38;;;;;;;0.10;0.10;;;;;;;;;;6219250;22;20029;-78
2023/12/23 13:54:04;;;;;;;0.10;0.10;;;;;;;;;;6216162;22;20644;-78
2023/12/23 13:56:31;;;;;;;0.10;0.10;;;;;;;;;;6243780;22;20385;-78
2023/12/23 13:58:57;;;;;;;0.10;0.10;;;;;;;;;;6244296;22;20440;-78
2023/12/23 14:01:24;;;;;;;0.10;0.10;;;;;;;;;;6217503;22;20021;-78
2023/12/23 14:03:50;;;;;;;0.43;0.43;;;;;;;;;;6242880;22;20024;-78
2023/12/23 14:06:19;;;;;;;0.10;0.10;;;;;;;;;;6215713;22;20036;-78
2023/12/23 14:08:45;;;;;;;0.10;0.10;;;;;;;;;;6218104;22;20024;-78
2023/12/23 14:11:12;;;;;;;0.10;0.10;;;;;;;;;;6243636;22;20029;-77
2023/12/23 14:13:38;;;;;;;0.10;0.10;;;;;;;;;;6243451;22;20035;-78
2023/12/23 14:16:05;;;;;;;0.30;0.30;;;;;;;;;;6216524;22;20062;-78
2023/12/23 14:18:31;;;;;;;0.10;0.10;;;;;;;;;;6216410;22;20028;-77
2023/12/23 14:21:31;;;;;;;;;;;;;;;;;;;;;
2023/12/23 14:27:46;;;;;;;0.10;0.10;;;;;;;;;;6209787;22;20044;-78
2023/12/23 14:30:13;;;;;;;0.10;0.10;;;;;;;;;;6197483;23;20036;-78
2023/12/23 14:32:40;;;;;;;0.10;0.10;;;;;;;;;;6226291;23;20021;-79
2023/12/23 14:35:09;;;;;;;0.30;0.30;;;;;;;;;;6197962;23;20052;-79
2023/12/23 14:50:57;;;;;;;0.10;0.10;;;;;;;;;;6128256;22;20029;-79
2023/12/23 14:53:23;;;;;;;0.10;0.10;;;;;;;;;;6187507;23;20607;-78
2023/12/23 14:55:50;;;;;;;0.10;0.10;;;;;;;;;;6189753;22;20100;-79
2023/12/23 14:58:16;;;;;;;0.10;0.10;;;;;;;;;;6214888;23;20025;-79
2023/12/23 15:00:42;;;;;;;0.10;0.10;;;;;;;;;;6186729;23;20560;-78
2023/12/23 15:03:09;;;;;;;0.10;0.10;;;;;;;;;;6188360;23;20033;-79
2023/12/23 15:05:35;;;;;;;0.10;0.10;;;;;;;;;;6188135;22;20036;-79
2023/12/23 15:08:02;;;;;;;0.10;0.10;;;;;;;;;;6187061;23;20047;-79
2023/12/23 15:10:29;;;;;;;0.20;0.20;;;;;;;;;;6211348;23;20500;-79
2023/12/23 15:12:56;;;;;;;0.10;0.10;;;;;;;;;;6187353;23;20052;-79
2023/12/23 15:15:23;;;;;;;0.10;0.10;;;;;;;;;;6187836;23;20021;-80